NKS303 KEWR-KDTW
Flight info
| Callsign | NKS303 |
|---|---|
| Flight time | N/A |
| Altitude | 36000 |
| Route | GAYEL J95 CFB TRAAD JACCI FERRL2 |
| Aircraft | A20N/M-SDE2E3FGHIRWXY/LB1 |
Departure
| Time | N/A |
|---|---|
| Airport | Newark Liberty International Airport (KEWR) |
Arrival
| Time | 2026-05-06 07:11 |
|---|---|
| Airport | Detroit Metropolitan Wayne County Airport (KDTW) |
| Time | Latitude | Longitude | Altitude | Speed | Heading |
|---|---|---|---|---|---|
| 2026-05-06 06:33 | 42.49747 | -79.63187 | 35713 ft | 370 kts | 271° |
| 2026-05-06 06:34 | 42.49930 | -79.70160 | 35706 ft | 369 kts | 270° |
| 2026-05-06 06:34 | 42.50102 | -79.76854 | 35702 ft | 368 kts | 270° |
| 2026-05-06 06:35 | 42.50275 | -79.83775 | 35698 ft | 367 kts | 270° |
| 2026-05-06 06:35 | 42.50446 | -79.90694 | 35692 ft | 367 kts | 270° |
| 2026-05-06 06:36 | 42.50610 | -79.97547 | 35697 ft | 365 kts | 270° |
| 2026-05-06 06:36 | 42.50767 | -80.04421 | 35705 ft | 365 kts | 270° |
| 2026-05-06 06:37 | 42.50924 | -80.11316 | 35705 ft | 366 kts | 271° |
| 2026-05-06 06:37 | 42.51079 | -80.18256 | 35705 ft | 366 kts | 270° |
| 2026-05-06 06:38 | 42.51221 | -80.25083 | 35705 ft | 365 kts | 270° |
| 2026-05-06 06:38 | 42.51365 | -80.31920 | 35705 ft | 364 kts | 270° |
| 2026-05-06 06:39 | 42.51502 | -80.38792 | 35701 ft | 364 kts | 270° |
| 2026-05-06 06:39 | 42.51635 | -80.45592 | 35694 ft | 363 kts | 271° |
| 2026-05-06 06:40 | 42.51765 | -80.52393 | 35694 ft | 363 kts | 270° |
| 2026-05-06 06:40 | 42.51888 | -80.59215 | 35687 ft | 362 kts | 270° |
| 2026-05-06 06:41 | 42.51991 | -80.65996 | 35685 ft | 362 kts | 269° |
| 2026-05-06 06:41 | 42.52060 | -80.72794 | 35690 ft | 362 kts | 269° |
| 2026-05-06 06:42 | 42.52131 | -80.79609 | 35611 ft | 362 kts | 269° |
| 2026-05-06 06:42 | 42.52163 | -80.83004 | 35351 ft | 360 kts | 269° |
| 2026-05-06 06:42 | 42.52195 | -80.86350 | 35011 ft | 358 kts | 269° |
| 2026-05-06 06:42 | 42.52225 | -80.89709 | 34528 ft | 356 kts | 269° |
| 2026-05-06 06:43 | 42.52256 | -80.93056 | 33938 ft | 355 kts | 269° |
| 2026-05-06 06:43 | 42.52281 | -80.96390 | 33306 ft | 356 kts | 269° |
| 2026-05-06 06:43 | 42.52307 | -80.99709 | 32667 ft | 356 kts | 269° |
| 2026-05-06 06:43 | 42.52335 | -81.03055 | 31991 ft | 358 kts | 269° |
| 2026-05-06 06:44 | 42.52360 | -81.06458 | 31296 ft | 360 kts | 269° |
| 2026-05-06 06:44 | 42.52384 | -81.09833 | 30619 ft | 361 kts | 269° |
| 2026-05-06 06:44 | 42.52407 | -81.13231 | 30163 ft | 357 kts | 269° |
| 2026-05-06 06:44 | 42.52430 | -81.16586 | 29746 ft | 352 kts | 269° |
| 2026-05-06 06:45 | 42.52449 | -81.19868 | 29339 ft | 347 kts | 269° |
| 2026-05-06 06:45 | 42.52467 | -81.23109 | 28935 ft | 343 kts | 269° |
| 2026-05-06 06:45 | 42.52487 | -81.26276 | 28537 ft | 339 kts | 269° |
| 2026-05-06 06:45 | 42.52503 | -81.29441 | 28140 ft | 335 kts | 269° |
| 2026-05-06 06:46 | 42.52519 | -81.32614 | 27714 ft | 332 kts | 269° |
| 2026-05-06 06:46 | 42.52511 | -81.35700 | 27295 ft | 329 kts | 267° |
| 2026-05-06 06:46 | 42.52390 | -81.38801 | 26884 ft | 326 kts | 265° |
| 2026-05-06 06:46 | 42.52180 | -81.41813 | 26479 ft | 323 kts | 264° |
| 2026-05-06 06:47 | 42.51958 | -81.44853 | 26073 ft | 320 kts | 264° |
| 2026-05-06 06:47 | 42.51741 | -81.47811 | 25677 ft | 318 kts | 264° |
| 2026-05-06 06:47 | 42.51519 | -81.50781 | 25269 ft | 315 kts | 264° |
| 2026-05-06 06:47 | 42.51299 | -81.53726 | 24871 ft | 313 kts | 264° |
| 2026-05-06 06:48 | 42.51079 | -81.56650 | 24453 ft | 311 kts | 264° |
| 2026-05-06 06:48 | 42.50859 | -81.59563 | 24044 ft | 310 kts | 264° |
| 2026-05-06 06:48 | 42.50641 | -81.62451 | 23635 ft | 308 kts | 264° |
| 2026-05-06 06:48 | 42.50424 | -81.65314 | 23243 ft | 306 kts | 263° |
| 2026-05-06 06:49 | 42.50205 | -81.68167 | 22842 ft | 305 kts | 263° |
| 2026-05-06 06:49 | 42.49985 | -81.71021 | 22439 ft | 304 kts | 263° |
| 2026-05-06 06:49 | 42.49768 | -81.73852 | 22018 ft | 304 kts | 263° |
| 2026-05-06 06:49 | 42.49548 | -81.76711 | 21609 ft | 303 kts | 263° |
| 2026-05-06 06:50 | 42.49330 | -81.79530 | 21184 ft | 302 kts | 263° |
| 2026-05-06 06:50 | 42.49112 | -81.82365 | 20749 ft | 302 kts | 263° |
| 2026-05-06 06:50 | 42.48894 | -81.85179 | 20331 ft | 302 kts | 263° |
| 2026-05-06 06:50 | 42.48673 | -81.88004 | 19909 ft | 301 kts | 263° |
| 2026-05-06 06:51 | 42.48449 | -81.90873 | 19457 ft | 301 kts | 263° |
| 2026-05-06 06:51 | 42.48231 | -81.93651 | 19019 ft | 301 kts | 263° |
| 2026-05-06 06:51 | 42.48013 | -81.96427 | 18584 ft | 300 kts | 263° |
| 2026-05-06 06:51 | 42.47779 | -81.99380 | 18151 ft | 298 kts | 263° |
| 2026-05-06 06:52 | 42.47541 | -82.02353 | 17698 ft | 297 kts | 263° |
| 2026-05-06 06:52 | 42.47319 | -82.05147 | 17261 ft | 297 kts | 263° |
| 2026-05-06 06:52 | 42.47100 | -82.07909 | 16842 ft | 296 kts | 263° |
| 2026-05-06 06:52 | 42.46878 | -82.10665 | 16409 ft | 295 kts | 263° |
| 2026-05-06 06:53 | 42.46657 | -82.13404 | 15998 ft | 293 kts | 263° |
| 2026-05-06 06:53 | 42.46442 | -82.16071 | 15573 ft | 293 kts | 263° |
| 2026-05-06 06:53 | 42.46217 | -82.18830 | 15141 ft | 291 kts | 263° |
| 2026-05-06 06:53 | 42.45996 | -82.21552 | 14741 ft | 290 kts | 263° |
| 2026-05-06 06:54 | 42.45775 | -82.24269 | 14329 ft | 288 kts | 263° |
| 2026-05-06 06:54 | 42.45557 | -82.26939 | 13939 ft | 286 kts | 262° |
| 2026-05-06 06:54 | 42.45339 | -82.29615 | 13534 ft | 284 kts | 262° |
| 2026-05-06 06:54 | 42.45116 | -82.32269 | 13130 ft | 283 kts | 261° |
| 2026-05-06 06:55 | 42.44822 | -82.34860 | 12744 ft | 281 kts | 260° |
| 2026-05-06 06:55 | 42.44510 | -82.37472 | 12345 ft | 279 kts | 259° |
| 2026-05-06 06:55 | 42.44201 | -82.40053 | 11954 ft | 277 kts | 259° |
| 2026-05-06 06:55 | 42.43890 | -82.42627 | 11560 ft | 275 kts | 259° |
| 2026-05-06 06:56 | 42.43579 | -82.45190 | 11172 ft | 273 kts | 259° |
| 2026-05-06 06:56 | 42.43274 | -82.47720 | 10791 ft | 272 kts | 259° |
| 2026-05-06 06:56 | 42.42969 | -82.50227 | 10388 ft | 270 kts | 259° |
| 2026-05-06 06:56 | 42.42663 | -82.52734 | 9999 ft | 269 kts | 259° |
| 2026-05-06 06:57 | 42.42365 | -82.55190 | 9837 ft | 256 kts | 259° |
| 2026-05-06 06:57 | 42.42084 | -82.57494 | 9741 ft | 243 kts | 259° |
| 2026-05-06 06:57 | 42.41813 | -82.59709 | 9502 ft | 239 kts | 259° |
| 2026-05-06 06:57 | 42.41538 | -82.61950 | 9140 ft | 239 kts | 258° |
| 2026-05-06 06:58 | 42.41267 | -82.64151 | 8801 ft | 238 kts | 259° |
| 2026-05-06 06:58 | 42.40998 | -82.66325 | 8448 ft | 237 kts | 258° |
| 2026-05-06 06:58 | 42.40728 | -82.68503 | 8112 ft | 235 kts | 258° |
| 2026-05-06 06:58 | 42.40458 | -82.70700 | 7783 ft | 234 kts | 258° |
| 2026-05-06 06:59 | 42.40189 | -82.72868 | 7454 ft | 233 kts | 258° |
| 2026-05-06 06:59 | 42.39925 | -82.75002 | 7134 ft | 232 kts | 258° |
| 2026-05-06 06:59 | 42.39806 | -82.77168 | 6796 ft | 234 kts | 272° |
| 2026-05-06 06:59 | 42.40223 | -82.79359 | 6613 ft | 247 kts | 289° |
| 2026-05-06 07:00 | 42.40992 | -82.81347 | 6638 ft | 254 kts | 293° |
| 2026-05-06 07:00 | 42.41878 | -82.83492 | 6582 ft | 255 kts | 294° |
| 2026-05-06 07:00 | 42.42473 | -82.84928 | 6329 ft | 255 kts | 293° |
| 2026-05-06 07:00 | 42.42918 | -82.86002 | 6142 ft | 254 kts | 294° |
| 2026-05-06 07:01 | 42.44400 | -82.89577 | 5899 ft | 235 kts | 294° |
| 2026-05-06 07:01 | 42.45761 | -82.92863 | 5745 ft | 213 kts | 293° |
| 2026-05-06 07:01 | 42.46482 | -82.94612 | 5722 ft | 208 kts | 293° |
| 2026-05-06 07:02 | 42.47200 | -82.96360 | 5721 ft | 207 kts | 293° |
| 2026-05-06 07:02 | 42.47901 | -82.98064 | 5715 ft | 206 kts | 293° |
| 2026-05-06 07:02 | 42.48605 | -82.99777 | 5713 ft | 204 kts | 293° |
| 2026-05-06 07:02 | 42.49106 | -83.01290 | 5705 ft | 200 kts | 276° |
| 2026-05-06 07:03 | 42.48974 | -83.03142 | 5713 ft | 196 kts | 247° |
| 2026-05-06 07:03 | 42.48123 | -83.04645 | 5714 ft | 203 kts | 219° |
| 2026-05-06 07:03 | 42.46790 | -83.05404 | 5725 ft | 210 kts | 201° |
| 2026-05-06 07:03 | 42.45429 | -83.06078 | 5711 ft | 205 kts | 218° |
| 2026-05-06 07:04 | 42.44400 | -83.07404 | 5717 ft | 201 kts | 231° |
| 2026-05-06 07:04 | 42.43450 | -83.08828 | 5476 ft | 203 kts | 231° |
| 2026-05-06 07:04 | 42.42498 | -83.10252 | 5160 ft | 203 kts | 231° |
| 2026-05-06 07:04 | 42.41539 | -83.11704 | 4849 ft | 202 kts | 232° |
| 2026-05-06 07:05 | 42.40606 | -83.13135 | 4559 ft | 201 kts | 232° |
| 2026-05-06 07:05 | 42.39669 | -83.14578 | 4270 ft | 201 kts | 232° |
| 2026-05-06 07:05 | 42.38747 | -83.16003 | 3986 ft | 200 kts | 232° |
| 2026-05-06 07:05 | 42.37832 | -83.17421 | 3712 ft | 200 kts | 233° |
| 2026-05-06 07:06 | 42.36911 | -83.18852 | 3442 ft | 200 kts | 232° |
| 2026-05-06 07:06 | 42.35988 | -83.20287 | 3188 ft | 198 kts | 232° |
| 2026-05-06 07:06 | 42.35105 | -83.21652 | 3152 ft | 187 kts | 233° |
| 2026-05-06 07:06 | 42.34244 | -83.22987 | 3077 ft | 185 kts | 232° |
| 2026-05-06 07:07 | 42.33418 | -83.24266 | 3051 ft | 174 kts | 232° |
| 2026-05-06 07:07 | 42.32549 | -83.25382 | 2887 ft | 167 kts | 222° |
| 2026-05-06 07:07 | 42.31615 | -83.26225 | 2776 ft | 155 kts | 217° |
| 2026-05-06 07:07 | 42.30693 | -83.26962 | 2572 ft | 149 kts | 215° |
| 2026-05-06 07:08 | 42.29808 | -83.27626 | 2384 ft | 141 kts | 214° |
| 2026-05-06 07:08 | 42.28952 | -83.28258 | 2194 ft | 140 kts | 214° |
| 2026-05-06 07:08 | 42.28099 | -83.28886 | 2017 ft | 137 kts | 213° |
| 2026-05-06 07:08 | 42.27269 | -83.29495 | 1823 ft | 131 kts | 213° |
| 2026-05-06 07:09 | 42.26470 | -83.30085 | 1655 ft | 130 kts | 213° |
| 2026-05-06 07:09 | 42.25667 | -83.30677 | 1480 ft | 130 kts | 212° |
| 2026-05-06 07:09 | 42.24871 | -83.31267 | 1300 ft | 129 kts | 212° |
| 2026-05-06 07:09 | 42.24068 | -83.31843 | 1114 ft | 129 kts | 211° |
| 2026-05-06 07:10 | 42.23293 | -83.32433 | 959 ft | 128 kts | 211° |
| 2026-05-06 07:10 | 42.22501 | -83.33014 | 790 ft | 127 kts | 211° |
| 2026-05-06 07:10 | 42.21730 | -83.33586 | 646 ft | 124 kts | 210° |
| 2026-05-06 07:10 | 42.21049 | -83.34088 | 636 ft | 89 kts | 210° |
| 2026-05-06 07:11 | 42.20667 | -83.34364 | 637 ft | 30 kts | 210° |
| 2026-05-06 07:11 | 42.20491 | -83.34496 | 637 ft | 27 kts | 208° |
| 2026-05-06 07:11 | 42.20329 | -83.34615 | 637 ft | 25 kts | 208° |
| 2026-05-06 07:11 | 42.20191 | -83.34746 | 637 ft | 23 kts | 252° |
| 2026-05-06 07:12 | 42.20181 | -83.34958 | 637 ft | 14 kts | 268° |
| 2026-05-06 07:12 | 42.20179 | -83.35095 | 638 ft | 14 kts | 269° |
| 2026-05-06 07:12 | 42.20175 | -83.35233 | 638 ft | 14 kts | 266° |
| 2026-05-06 07:12 | 42.20174 | -83.35369 | 639 ft | 14 kts | 272° |
| 2026-05-06 07:13 | 42.20171 | -83.35505 | 640 ft | 14 kts | 267° |
| 2026-05-06 07:13 | 42.20166 | -83.35641 | 640 ft | 14 kts | 269° |
| 2026-05-06 07:13 | 42.20165 | -83.35777 | 641 ft | 14 kts | 268° |
| 2026-05-06 07:13 | 42.20163 | -83.35915 | 641 ft | 14 kts | 270° |
| 2026-05-06 07:14 | 42.20161 | -83.36050 | 641 ft | 11 kts | 269° |
| 2026-05-06 07:14 | 42.20179 | -83.36122 | 641 ft | 8 kts | 339° |
| 2026-05-06 07:14 | 42.20237 | -83.36098 | 641 ft | 9 kts | 27° |
| 2026-05-06 07:14 | 42.20300 | -83.36053 | 641 ft | 10 kts | 28° |
| 2026-05-06 07:15 | 42.20342 | -83.36029 | 642 ft | 1 kts | 348° |
| 2026-05-06 07:15 | 42.20351 | -83.36036 | 642 ft | 3 kts | 320° |
| 2026-05-06 07:15 | 42.20369 | -83.36070 | 642 ft | 4 kts | 298° |
| 2026-05-06 07:15 | 42.20371 | -83.36076 | 642 ft | 0 kts | 297° |